User Preferences

Timezone
Units
Lat/Lon format
Defaults

Geo and time bounds

073 - SCRIPPS PIER, LA JOLLA CA   Notice:02/14/2024 Cleaned sensor Data set:
720 records
Date
(UTC)
Hs
(ft)
Tp
(s)
Ta
(s)
Depth
(ft)
Wind sp
(kt)
Wind dir
(deg)
2023-09-30 23:45 1.94 2.98 4.60 14.34 5.6 192
2023-09-30 22:45 2.03 9.85 4.76 14.34 11.6 288
2023-09-30 21:45 2.20 8.83 5.09 15.09 10.0 274
2023-09-30 20:45 2.13 9.85 5.30 16.40 9.3 262
2023-09-30 19:45 2.17 9.85 5.80 18.01 7.9 254
2023-09-30 18:45 2.26 9.14 6.27 19.49 7.6 255
2023-09-30 17:45 2.40 9.85 6.29 20.57 9.5 266
2023-09-30 16:45 2.23 9.85 6.46 20.87 7.5 232
2023-09-30 15:45 2.17 9.85 6.40 20.34 6.2 200
2023-09-30 14:45 2.20 10.24 6.77 19.19 5.4 164
2023-09-30 13:45 2.17 10.24 7.05 17.68 5.9 138
2023-09-30 12:45 2.10 9.48 7.13 16.17 4.9 136
2023-09-30 11:45 2.07 10.67 7.00 15.12 3.1 179
2023-09-30 10:45 2.20 9.48 7.30 14.67 6.2 135
2023-09-30 09:45 2.30 10.24 7.04 14.93 2.0 163
2023-09-30 08:45 2.26 9.14 6.97 15.85 3.3 144
2023-09-30 07:45 2.62 9.48 7.42 17.16 1.3 164
2023-09-30 06:45 2.76 10.24 7.33 18.60 3.6 166
2023-09-30 05:45 2.82 10.24 7.63 19.69 3.3 183
2023-09-30 04:45 2.89 9.85 7.68 20.14 2.4 121
2023-09-30 03:45 2.69 9.48 7.77 19.85 2.2 155
2023-09-30 02:45 2.20 10.24 7.40 18.86 1.7 142
2023-09-30 01:45 2.07 8.83 6.94 17.49 4.1 195
2023-09-30 00:45 2.20 7.76 7.13 16.01 6.6 226
2023-09-29 23:45 2.26 9.48 6.83 14.90 9.5 226
2023-09-29 22:45 2.20 9.14 6.66 14.37 10.6 227
2023-09-29 21:45 2.40 8.83 6.73 14.53 10.5 233
2023-09-29 20:45 2.56 9.48 7.19 15.45 9.9 233
2023-09-29 19:45 2.56 10.67 7.04 16.86 8.3 238
2023-09-29 18:45 2.72 11.13 7.69 18.44 7.2 214
2023-09-29 17:45 2.49 9.48 7.72 19.78 6.7 189
2023-09-29 16:45 2.79 10.67 7.75 20.47 5.7 148
2023-09-29 15:45 2.49 10.24 7.61 20.41 5.8 181
2023-09-29 14:45 2.43 11.13 7.54 19.52 5.7 192
2023-09-29 13:45 2.36 9.85 7.17 18.11 6.2 192
2023-09-29 12:45 2.30 10.24 6.72 16.47 4.5 187
2023-09-29 11:45 2.43 9.14 6.75 15.03 3.9 191
2023-09-29 10:45 2.72 8.83 6.88 14.21 3.9 158
2023-09-29 09:45 2.66 8.53 7.07 14.11 6.1 183
2023-09-29 08:45 2.69 9.85 7.26 14.76 2.7 179
2023-09-29 07:45 2.49 10.24 7.13 16.04 4.5 174
2023-09-29 06:45 2.40 10.24 7.27 17.65 3.9 166
2023-09-29 05:45 2.33 8.26 7.47 19.19 2.4 168
2023-09-29 04:45 2.49 10.24 7.77 20.24 4.0 187
2023-09-29 03:45 2.59 7.53 7.93 20.57 4.4 178
2023-09-29 02:45 2.79 11.13 7.74 20.14 4.4 187
2023-09-29 01:45 2.59 11.13 7.72 19.06 4.1 189
2023-09-29 00:45 2.46 10.24 7.16 17.59 6.8 234
2023-09-28 23:45 2.26 9.14 7.04 16.17 8.4 236
2023-09-28 22:45 2.56 9.14 6.90 15.12 9.4 235
2023-09-28 21:45 2.66 7.76 6.84 14.76 10.5 237
2023-09-28 20:45 2.69 8.00 7.08 15.12 10.8 238
2023-09-28 19:45 2.92 8.26 7.08 16.14 9.6 234
2023-09-28 18:45 2.69 9.14 7.32 17.45 7.7 247
2023-09-28 17:45 2.82 9.14 7.55 18.83 6.5 218
2023-09-28 16:45 2.72 12.19 7.60 19.82 5.6 229
2023-09-28 15:45 2.92 8.83 7.46 20.08 2.1 163
2023-09-28 14:45 3.08 9.14 7.93 19.62 4.2 179
2023-09-28 13:45 2.72 9.14 7.62 18.47 2.0 199
2023-09-28 12:45 2.76 10.67 7.44 16.96 3.0 202
2023-09-28 11:45 2.69 9.14 7.18 15.42 3.0 196
2023-09-28 10:45 2.66 8.83 6.85 14.24 1.4 175
2023-09-28 09:45 2.46 11.13 6.88 13.78 3.4 175
2023-09-28 08:45 2.20 10.67 6.96 14.04 0.6 158
2023-09-28 07:45 2.46 13.47 7.09 15.06 3.3 201
2023-09-28 06:45 2.82 12.19 7.63 16.57 2.3 149
2023-09-28 05:45 2.76 12.19 7.72 18.27 0.9 135
2023-09-28 04:45 2.89 12.19 7.60 19.72 3.3 153
2023-09-28 03:45 3.08 12.80 8.17 20.60 1.5 162
2023-09-28 02:45 2.85 12.19 8.19 20.73 2.7 150
2023-09-28 01:45 2.79 12.80 7.66 20.14 4.0 212
2023-09-28 00:45 2.79 12.80 7.42 19.00 6.0 219
2023-09-27 23:45 2.76 12.80 7.32 17.68 10.1 234
2023-09-27 22:45 2.66 12.80 6.85 16.34 10.9 230
2023-09-27 21:45 2.72 13.47 6.69 15.58 11.2 239
2023-09-27 20:45 2.89 8.83 6.43 15.39 2.8 298
2023-09-27 19:45 2.92 7.53 6.54 15.88 4.0 275
2023-09-27 18:45 2.79 11.64 6.62 16.83 2.5 262
2023-09-27 17:45 2.99 7.31 6.53 17.98 1.3 282
2023-09-27 16:45 3.22 7.31 6.99 18.93 2.6 260
2023-09-27 15:45 3.25 6.74 6.93 19.49 2.1 351
2023-09-27 14:45 3.25 6.56 6.94 19.36 2.2 63
2023-09-27 13:45 3.08 14.22 7.04 18.64 4.9 124
2023-09-27 12:45 2.95 12.19 6.98 17.39 3.0 106
2023-09-27 11:45 2.72 13.47 6.77 15.91 4.1 106
2023-09-27 10:45 2.82 14.22 6.75 14.57 3.9 101
2023-09-27 09:45 2.62 13.47 6.51 13.68 2.4 95
2023-09-27 08:45 2.85 11.64 6.47 13.52 0.9 118
2023-09-27 07:45 2.72 12.19 6.49 14.14 1.4 162
2023-09-27 06:45 2.85 9.85 6.64 15.32 1.1 174
2023-09-27 05:45 2.95 11.64 6.84 16.93 0.0 69
2023-09-27 04:45 2.72 11.13 6.73 18.54 0.0 112
2023-09-27 03:45 2.72 13.47 6.80 19.82 0.4 88
2023-09-27 02:45 2.59 12.80 6.52 20.54 0.8 149
2023-09-27 01:45 2.53 12.80 6.43 20.54 0.1 18
2023-09-27 00:45 2.53 5.45 6.22 19.95 1.4 22
2023-09-26 23:45 2.46 13.47 6.00 18.90 1.6 5
2023-09-26 22:45 2.56 12.80 5.91 17.68 3.5 5
2023-09-26 21:45 2.43 5.95 5.51 16.67 4.7 23
2023-09-26 20:45 2.46 5.57 5.50 16.14 4.3 21
2023-09-26 19:45 2.59 5.95 5.43 16.14 3.0 20
2023-09-26 18:45 2.43 5.82 5.26 16.63 3.8 2
2023-09-26 17:45 2.72 6.10 4.99 17.39 4.4 323
2023-09-26 16:45 2.46 5.69 5.11 18.24 3.1 317
2023-09-26 15:45 2.23 5.95 5.17 18.86 3.5 322
2023-09-26 14:45 2.07 5.82 5.12 19.00 4.6 340
2023-09-26 13:45 2.03 5.57 5.03 18.60 0.8 350
2023-09-26 12:45 2.07 5.95 4.81 17.75 1.1 98
2023-09-26 11:45 2.20 5.57 4.79 16.50 5.9 104
2023-09-26 10:45 2.33 5.57 4.59 15.22 2.0 98
2023-09-26 09:45 2.36 5.33 4.56 14.17 0.7 151
2023-09-26 08:45 2.43 5.45 4.40 13.68 1.0 31
2023-09-26 07:45 2.26 5.33 4.37 13.85 2.8 38
2023-09-26 06:45 2.26 5.22 4.44 14.57 6.1 24
2023-09-26 05:45 2.00 4.74 4.30 15.88 6.4 11
2023-09-26 04:45 1.90 4.06 4.36 17.36 4.6 33
2023-09-26 03:45 1.74 5.33 4.48 18.70 5.8 351
2023-09-26 02:45 1.54 4.41 4.60 19.78 5.9 337
2023-09-26 01:45 1.44 5.02 4.83 20.28 6.9 335
2023-09-26 00:45 1.35 5.22 4.80 20.21 6.7 329
2023-09-25 23:45 1.38 5.02 4.72 19.69 7.0 324
2023-09-25 22:45 1.44 4.65 4.77 18.80 5.8 336
2023-09-25 21:45 1.38 4.83 4.83 17.95 8.0 319
2023-09-25 20:45 1.44 4.92 4.76 17.22 8.5 300
2023-09-25 19:45 1.54 5.33 4.73 16.90 6.8 302
2023-09-25 18:45 1.64 5.45 4.77 16.99 7.3 320
2023-09-25 17:45 1.80 5.33 4.74 17.39 7.3 332
2023-09-25 16:45 1.71 5.12 4.75 17.91 5.8 2
2023-09-25 15:45 1.74 5.12 4.75 18.41 5.1 17
2023-09-25 14:45 1.64 4.74 4.76 18.60 3.9 8
2023-09-25 13:45 1.64 4.65 4.62 18.50 3.4 27
2023-09-25 12:45 1.64 4.49 4.46 17.95 3.1 34
2023-09-25 11:45 1.64 4.41 4.46 17.06 4.4 30
2023-09-25 10:45 1.67 4.65 4.42 16.04 5.3 32
2023-09-25 09:45 1.80 4.27 4.38 14.99 5.5 19
2023-09-25 08:45 2.00 4.74 4.38 14.27 0.7 346
2023-09-25 07:45 1.97 4.74 4.32 14.07 0.5 164
2023-09-25 06:45 1.87 4.34 4.22 14.37 1.2 36
2023-09-25 05:45 1.84 4.06 4.13 15.12 0.0
2023-09-25 04:45 1.74 4.41 4.21 16.24 0.0 28
2023-09-25 03:45 1.71 4.00 4.28 17.49 0.4 63
2023-09-25 02:45 1.57 4.74 4.59 18.60 2.4 354
2023-09-25 01:45 1.57 4.83 4.76 19.46 4.6 321
2023-09-25 00:45 1.61 4.92 4.87 19.85 5.2 310
2023-09-24 23:45 1.48 5.22 5.08 19.85 5.4 313
2023-09-24 22:45 1.28 5.45 5.20 19.46 7.3 323
2023-09-24 21:45 1.31 5.02 5.29 18.93 8.0 319
2023-09-24 20:45 1.25 4.83 5.19 18.31 7.4 312
2023-09-24 19:45 1.31 5.33 5.21 17.85 7.2 318
2023-09-24 18:45 1.31 5.33 5.11 17.62 5.6 321
2023-09-24 17:45 1.41 5.69 5.05 17.65 5.2 326
2023-09-24 16:45 1.18 12.19 5.07 17.81 3.5 322
2023-09-24 15:45 1.21 3.28 4.86 18.08 3.5 20
2023-09-24 14:45 1.25 3.32 4.76 18.24 4.3 38
2023-09-24 13:45 1.28 3.82 4.62 18.24 3.6 50
2023-09-24 12:45 1.31 3.66 4.69 17.98 3.8 52
2023-09-24 11:45 1.35 3.88 4.72 17.45 2.3 67
2023-09-24 10:45 1.48 4.00 4.34 16.70 1.6 59
2023-09-24 09:45 1.54 4.20 4.44 15.88 0.8 172
2023-09-24 08:45 1.51 4.27 4.33 15.16 0.2 173
2023-09-24 07:45 1.54 4.20 4.19 14.67 0.1 35
2023-09-24 06:45 1.51 3.41 4.18 14.53 2.7 344
2023-09-24 05:45 1.51 3.28 4.05 14.83 3.7 326
2023-09-24 04:45 1.48 3.41 4.16 15.49 3.5 321
2023-09-24 03:45 1.44 3.37 4.34 16.40 5.0 332
2023-09-24 02:45 1.38 3.88 4.66 17.36 6.5 314
2023-09-24 01:45 1.38 3.41 4.61 18.24 6.6 330
2023-09-24 00:45 1.31 3.32 4.65 18.96 6.4 317
2023-09-23 23:45 1.31 3.46 4.80 19.36 6.8 323
2023-09-23 22:45 1.31 3.32 4.86 19.46 8.3 318
2023-09-23 21:45 1.28 3.82 5.06 19.32 6.8 308
2023-09-23 20:45 1.31 10.24 5.15 19.03 8.9 323
2023-09-23 19:45 1.38 3.66 4.68 18.67 8.2 319
2023-09-23 18:45 1.57 3.66 4.65 18.34 7.0 305
2023-09-23 17:45 1.57 3.88 4.67 18.08 5.1 306
2023-09-23 16:45 1.64 3.76 4.69 17.95 4.2 328
2023-09-23 15:45 1.57 3.82 4.72 17.88 3.3 8
2023-09-23 14:45 1.48 3.46 4.76 17.88 4.4 61
2023-09-23 13:45 1.38 3.05 4.84 17.88 6.1 41
2023-09-23 12:45 1.38 3.37 4.66 17.78 6.9 357
2023-09-23 11:45 1.28 9.48 5.17 17.59 5.8 20
2023-09-23 10:45 1.18 11.13 6.05 17.16 7.4 2
2023-09-23 09:45 1.18 11.13 6.36 16.67 6.6 345
2023-09-23 08:45 1.25 10.24 6.56 16.11 6.8 341
2023-09-23 07:45 1.25 10.67 6.53 15.58 4.7 336
2023-09-23 06:45 1.21 10.24 6.40 15.12 1.7 357
2023-09-23 05:45 1.25 10.67 6.02 15.03 5.9 33
2023-09-23 04:45 1.21 10.67 5.72 15.22 6.7 334
2023-09-23 03:45 1.18 10.67 5.95 15.65 7.0 333
2023-09-23 02:45 1.18 10.67 6.10 16.31 5.1 349
2023-09-23 01:45 1.21 9.48 5.98 17.13 6.1 22
2023-09-23 00:45 1.21 10.67 6.36 17.88 6.1 338
2023-09-22 23:45 1.25 11.13 6.71 18.57 7.2 335
2023-09-22 22:45 1.31 11.64 6.61 19.13 6.6 359
2023-09-22 21:45 1.41 10.67 6.75 19.42 4.2 359
2023-09-22 20:45 1.41 10.67 6.26 19.49 4.3 343
2023-09-22 19:45 1.41 10.24 6.12 19.36 2.9 333
2023-09-22 18:45 1.57 11.64 6.03 19.06 4.3 340
2023-09-22 17:45 1.64 10.67 5.87 18.64 5.3 348
2023-09-22 16:45 1.64 9.48 5.44 18.24 3.7 340
2023-09-22 15:45 1.67 8.53 5.24 17.91 3.7 10
2023-09-22 14:45 1.71 3.32 5.20 17.68 7.2 19
2023-09-22 13:45 1.71 3.41 5.40 17.55 1.6 328
2023-09-22 12:45 1.54 9.48 5.34 17.49 6.5 52
2023-09-22 11:45 1.57 8.83 5.33 17.39 5.2 37
2023-09-22 10:45 1.67 10.67 5.38 17.36 2.3 33
2023-09-22 09:45 1.64 10.67 5.82 17.13 3.2 35
2023-09-22 08:45 1.77 9.48 6.14 16.86 4.9 38
2023-09-22 07:45 1.80 10.67 6.16 16.47 5.2 31
2023-09-22 06:45 1.71 11.64 6.00 15.98 6.5 42
2023-09-22 05:45 1.67 10.24 5.67 15.65 8.8 28
2023-09-22 04:45 1.61 11.13 5.22 15.45 5.6 320
2023-09-22 03:45 1.57 10.67 5.18 15.49 6.2 330
2023-09-22 02:45 1.54 12.19 4.79 15.72 6.8 333
2023-09-22 01:45 1.54 7.11 4.90 16.17 7.3 329
2023-09-22 00:45 1.48 11.13 5.16 16.86 6.3 311
2023-09-21 23:45 1.48 11.13 5.51 17.62 5.9 307
2023-09-21 22:45 1.48 12.19 5.39 18.47 7.6 316
2023-09-21 21:45 1.51 9.48 5.82 19.13 8.8 313
2023-09-21 20:45 1.54 9.85 6.08 19.52 8.6 317
2023-09-21 19:45 1.64 9.85 6.44 19.65 7.7 293
2023-09-21 18:45 1.64 10.24 6.36 19.49 8.8 235
2023-09-21 17:45 1.71 10.67 6.55 19.16 3.8 206
2023-09-21 16:45 1.54 12.19 6.12 18.67 5.0 152
2023-09-21 15:45 1.51 11.64 5.43 18.08 6.0 122
2023-09-21 14:45 1.57 11.64 5.56 17.59 6.8 100
2023-09-21 13:45 1.61 8.83 5.49 17.22 7.6 109
2023-09-21 12:45 1.54 9.85 5.76 17.13 7.3 107
2023-09-21 11:45 1.54 11.64 5.33 17.13 6.0 101
2023-09-21 10:45 1.64 9.48 5.44 17.22 4.3 94
2023-09-21 09:45 1.97 9.48 5.87 17.39 4.3 95
2023-09-21 08:45 2.00 10.24 5.67 17.45 2.6 105
2023-09-21 07:45 1.90 12.19 5.54 17.26 1.8 51
2023-09-21 06:45 2.13 4.34 5.09 16.96 3.5 326
2023-09-21 05:45 2.23 4.27 4.88 16.50 3.6 310
2023-09-21 04:45 2.43 12.80 4.68 16.04 4.5 308
2023-09-21 03:45 2.43 4.34 4.59 15.65 5.6 308
2023-09-21 02:45 2.26 13.47 4.70 15.49 6.3 303
2023-09-21 01:45 1.94 14.22 4.83 15.62 7.0 294
2023-09-21 00:45 1.87 13.47 5.00 15.98 7.5 297
2023-09-20 23:45 1.61 12.80 4.93 16.63 6.8 289
2023-09-20 22:45 1.61 12.80 5.07 17.55 6.1 259
2023-09-20 21:45 1.77 4.92 4.95 18.47 7.3 273
2023-09-20 20:45 1.84 5.12 5.41 19.19 8.8 274
2023-09-20 19:45 2.00 5.57 5.58 19.62 8.3 262
2023-09-20 18:45 1.87 5.33 5.63 19.72 7.2 262
2023-09-20 18:05 1.84 13.47 5.61 19.55 6.3 252
2023-09-20 16:45 1.87 12.80 5.53 18.93 4.1 237
2023-09-20 15:45 1.90 12.80 5.56 18.24 5.6 246
2023-09-20 14:45 1.77 12.80 5.19 17.55 4.9 237
2023-09-20 13:45 1.61 13.47 5.25 16.93 3.6 150
2023-09-20 12:45 1.44 14.22 5.10 16.63 2.9 151
2023-09-20 11:45 1.48 14.22 5.00 16.60 2.9 198
2023-09-20 10:45 1.38 14.22 5.01 16.86 3.4 235
2023-09-20 09:45 1.44 14.22 4.95 17.22 1.9 221
2023-09-20 08:45 1.48 4.00 4.96 17.65 3.8 253
2023-09-20 07:45 1.54 10.67 4.97 17.81 2.4 263
2023-09-20 06:45 1.51 15.06 5.24 17.75 1.3 290
2023-09-20 05:45 1.51 11.13 5.38 17.42 1.1 228
2023-09-20 04:45 1.61 10.67 5.06 16.86 4.3 245
2023-09-20 03:45 1.61 14.22 4.68 16.24 3.3 259
2023-09-20 02:45 1.51 15.06 4.79 15.72 4.3 277
2023-09-20 01:45 1.51 4.41 4.62 15.39 6.0 283
2023-09-20 00:45 1.48 4.92 4.58 15.45 6.0 275
2023-09-19 23:45 1.44 5.02 4.95 15.91 6.5 261
2023-09-19 22:45 1.41 5.12 4.95 16.70 5.9 289
2023-09-19 21:45 1.51 5.33 4.95 17.62 6.6 310
2023-09-19 20:45 1.54 5.45 5.00 18.64 6.5 302
2023-09-19 19:45 1.61 5.12 5.22 19.39 6.4 289
2023-09-19 18:45 1.64 5.12 5.22 19.72 3.8 289
2023-09-19 17:45 1.64 5.02 5.15 19.65 2.8 291
2023-09-19 16:45 1.61 5.02 5.15 19.19 2.4 285
2023-09-19 15:45 1.44 5.22 5.13 18.44 2.0 210
2023-09-19 14:45 1.38 3.82 4.57 17.62 5.2 118
2023-09-19 13:45 1.54 3.88 4.51 16.83 3.5 111
2023-09-19 12:45 1.54 4.00 4.29 16.31 4.8 99
2023-09-19 11:45 1.54 3.94 4.25 16.21 4.0 99
2023-09-19 10:45 1.67 4.41 4.31 16.40 4.2 100
2023-09-19 09:45 1.67 4.13 4.29 16.96 3.8 88
2023-09-19 08:45 1.57 4.34 4.43 17.55 2.9 102
2023-09-19 07:45 1.71 4.20 4.33 18.04 3.2 81
2023-09-19 06:45 1.71 4.57 4.36 18.27 1.5 110
2023-09-19 05:45 1.77 4.27 4.31 18.18 3.1 69
2023-09-19 04:45 1.87 4.06 4.13 17.68 2.5 324
2023-09-19 03:45 2.00 3.66 4.04 16.99 4.2 312
2023-09-19 02:45 1.90 3.20 3.96 16.21 5.5 305
2023-09-19 01:45 1.71 3.41 4.00 15.58 8.3 309
2023-09-19 00:45 1.74 3.41 4.02 15.29 6.9 297
2023-09-18 23:45 1.67 4.20 4.14 15.45 6.5 299
2023-09-18 22:45 1.61 5.02 4.24 16.01 6.2 297
2023-09-18 21:45 1.64 4.92 4.34 16.96 6.5 281
2023-09-18 20:45 1.57 5.57 4.49 18.01 5.8 287
2023-09-18 19:45 1.67 3.32 4.59 18.96 6.5 285
2023-09-18 18:45 1.67 5.95 4.60 19.62 6.9 284
2023-09-18 17:45 1.67 5.02 4.49 19.78 6.3 300
2023-09-18 16:45 1.90 3.94 4.45 19.52 6.4 302
2023-09-18 15:45 1.90 3.71 4.31 18.77 1.9 307
2023-09-18 14:45 1.97 3.41 4.17 17.81 4.1 35
2023-09-18 13:45 1.77 3.41 4.13 16.86 4.1 277
2023-09-18 12:45 1.57 3.66 4.10 16.21 1.1 151
2023-09-18 11:45 1.54 3.37 4.18 15.85 1.3 57
2023-09-18 10:45 1.61 4.57 4.08 16.04 2.2 27
2023-09-18 09:45 1.80 4.83 4.20 16.60 2.4 19
2023-09-18 08:45 1.84 4.74 4.23 17.36 2.5 49
2023-09-18 07:45 1.61 3.82 4.38 18.14 4.8 25
2023-09-18 06:45 1.71 4.06 4.35 18.67 4.3 22
2023-09-18 05:45 1.67 4.83 4.58 18.86 3.9 318
2023-09-18 04:45 1.54 5.22 4.75 18.60 8.4 307
2023-09-18 03:45 1.51 5.02 4.80 17.91 7.1 317
2023-09-18 02:45 1.61 5.12 4.64 17.06 6.8 329
2023-09-18 01:45 1.67 5.02 4.62 16.17 7.3 317
2023-09-18 00:45 1.77 5.12 4.63 15.55 6.2 325
2023-09-17 23:45 1.77 4.74 4.72 15.35 5.4 309
2023-09-17 22:45 1.64 5.22 4.64 15.72 6.1 306
2023-09-17 21:45 1.44 4.65 4.58 16.47 5.0 287
2023-09-17 20:45 1.48 4.92 4.57 17.52 5.2 287
2023-09-17 19:45 1.54 4.65 4.60 18.57 5.1 300
2023-09-17 18:45 1.74 4.57 4.61 19.39 4.6 315
2023-09-17 17:45 1.67 4.49 4.80 19.78 3.9 315
2023-09-17 16:45 1.57 4.34 4.82 19.62 0.9 352
2023-09-17 15:45 1.44 4.27 4.91 19.00 2.3 28
2023-09-17 14:45 1.31 4.41 4.82 18.01 2.3 1
2023-09-17 13:45 1.38 9.48 4.86 16.96 4.4 342
2023-09-17 12:45 1.38 8.83 4.81 16.04 5.6 342
2023-09-17 11:45 1.38 9.14 4.88 15.58 6.4 352
2023-09-17 10:45 1.38 4.34 4.73 15.65 6.5 354
2023-09-17 09:45 1.31 4.06 4.74 16.14 5.9 344
2023-09-17 08:45 1.31 9.48 4.86 17.03 5.7 347
2023-09-17 07:45 1.41 4.20 4.80 18.01 6.4 345
2023-09-17 06:45 1.54 4.20 4.81 18.77 5.5 304
2023-09-17 05:45 1.54 3.82 4.65 19.29 3.1 347
2023-09-17 04:45 1.61 4.13 4.72 19.32 4.0 329
2023-09-17 03:45 1.57 3.82 4.67 18.77 6.1 313
2023-09-17 02:45 1.57 3.88 4.65 17.91 5.4 292
2023-09-17 01:45 1.67 4.20 4.48 16.83 5.5 303
2023-09-17 00:45 1.48 3.88 4.47 16.01 3.8 324
2023-09-16 23:45 1.38 4.49 4.78 15.52 4.2 358
2023-09-16 22:45 1.31 8.26 5.21 15.55 3.4 320
2023-09-16 21:45 1.35 9.48 5.45 16.08 5.8 306
2023-09-16 20:45 1.28 9.48 5.35 16.93 8.1 313
2023-09-16 19:45 1.31 9.14 5.53 17.98 6.7 320
2023-09-16 18:45 1.35 9.85 5.59 18.93 5.5 297
2023-09-16 17:45 1.41 9.48 5.39 19.49 4.5 298
2023-09-16 16:45 1.44 9.85 5.37 19.55 4.6 313
2023-09-16 15:45 1.48 9.85 5.44 19.03 5.3 303
2023-09-16 14:45 1.48 3.24 4.77 18.11 7.0 310
2023-09-16 13:45 1.51 3.12 4.48 16.99 7.0 321
2023-09-16 12:45 1.21 9.85 4.86 15.98 5.9 310
2023-09-16 11:45 1.15 3.32 4.96 15.35 5.5 284
2023-09-16 10:45 1.18 9.14 5.19 15.19 0.1 14
2023-09-16 09:45 1.28 10.24 5.72 15.55 1.1 37
2023-09-16 08:45 1.28 8.26 5.63 16.44 2.3 321
2023-09-16 07:45 1.28 8.00 5.97 17.52 2.4 318
2023-09-16 06:45 1.28 8.26 6.50 18.60 2.5 280
2023-09-16 05:45 1.35 10.24 6.69 19.42 3.6 279
2023-09-16 04:45 1.25 10.24 6.29 19.69 4.5 282
2023-09-16 03:45 1.38 8.26 6.38 19.46 4.7 288
2023-09-16 02:45 1.38 9.48 6.36 18.70 4.8 291
2023-09-16 01:45 1.48 10.67 6.13 17.68 4.0 305
2023-09-16 00:45 1.44 9.85 5.86 16.63 6.5 301
2023-09-15 23:45 1.54 9.14 5.78 15.88 7.6 298
2023-09-15 22:45 1.57 9.85 5.75 15.62 6.9 303
2023-09-15 21:45 1.57 7.53 5.96 15.85 5.8 303
2023-09-15 20:45 1.67 8.53 6.34 16.50 5.5 291
2023-09-15 19:45 1.67 10.24 6.09 17.55 5.8 322
2023-09-15 18:45 1.61 9.48 6.25 18.47 4.6 334
2023-09-15 17:45 1.61 9.85 6.23 19.13 4.4 291
2023-09-15 16:45 1.61 10.24 6.05 19.39 4.7 299
2023-09-15 15:45 1.67 8.26 5.71 19.00 0.6 300
2023-09-15 14:45 1.64 9.14 5.77 18.18 2.2 178
2023-09-15 13:45 1.67 8.83 5.37 17.06 2.9 188
2023-09-15 12:45 1.74 10.24 5.43 15.98 3.4 191
2023-09-15 11:45 1.87 10.24 5.37 15.19 2.8 205
2023-09-15 10:45 1.77 8.00 5.49 14.83 0.2 227
2023-09-15 09:45 1.90 10.24 5.56 15.09 0.7 257
2023-09-15 08:45 1.84 8.53 5.42 15.91 3.8 258
2023-09-15 07:45 1.80 10.24 5.56 17.03 3.7 257
2023-09-15 06:45 1.80 9.48 5.72 18.24 0.7 205
2023-09-15 05:45 1.74 9.85 5.62 19.29 2.2 254
2023-09-15 04:45 1.67 11.13 5.99 19.88 3.0 302
2023-09-15 03:45 1.61 8.00 6.05 19.91 4.8 304
2023-09-15 02:45 1.64 5.45 5.85 19.36 5.2 303
2023-09-15 01:45 1.61 10.24 5.78 18.47 6.5 306
2023-09-15 00:45 1.80 10.24 5.66 17.39 5.1 296
2023-09-14 23:45 1.77 5.33 5.44 16.47 5.9 268
2023-09-14 22:45 1.90 6.56 5.37 15.94 5.8 277
2023-09-14 21:45 1.80 5.45 5.48 15.98 7.0 281
2023-09-14 20:45 1.84 5.22 5.71 16.40 6.2 267
2023-09-14 19:45 1.77 7.53 5.72 17.22 5.3 271
2023-09-14 18:45 1.64 8.26 5.79 18.14 5.5 260
2023-09-14 17:45 1.67 8.26 6.32 18.86 5.3 254
2023-09-14 16:45 1.64 7.53 6.24 19.23 4.1 259
2023-09-14 15:45 1.54 10.67 6.49 19.00 1.3 266
2023-09-14 14:45 1.41 10.67 6.03 18.31 1.3 144
2023-09-14 13:45 1.44 10.67 5.67 17.26 3.0 124
2023-09-14 12:45 1.48 7.11 5.56 16.11 4.0 106
2023-09-14 11:45 1.48 7.31 5.39 15.22 4.6 108
2023-09-14 10:45 1.54 7.31 5.37 14.70 3.0 98
2023-09-14 09:45 1.48 7.31 5.44 14.76 3.1 108
2023-09-14 08:45 1.51 6.74 5.69 15.42 4.0 135
2023-09-14 07:45 1.54 8.26 5.67 16.50 3.8 119
2023-09-14 06:45 1.57 8.26 5.75 17.81 2.9 115
2023-09-14 05:45 1.64 6.24 5.86 19.00 1.9 127
2023-09-14 04:45 1.77 5.82 5.95 19.82 1.4 139
2023-09-14 03:45 1.87 8.00 6.32 20.18 2.6 152
2023-09-14 02:45 2.07 6.10 6.21 19.88 3.8 230
2023-09-14 01:45 1.90 8.00 6.23 19.16 3.3 246
2023-09-14 00:45 1.84 7.76 6.07 18.11 2.7 276
2023-09-13 23:45 1.87 8.26 5.77 17.16 4.3 278
2023-09-13 22:45 2.07 8.00 5.82 16.47 6.8 268
2023-09-13 21:45 2.20 7.76 5.69 16.24 7.4 253
2023-09-13 20:45 2.26 7.76 5.72 16.44 6.6 251
2023-09-13 19:45 2.66 6.92 5.88 17.03 8.4 248
2023-09-13 18:45 2.85 7.76 5.87 17.88 6.3 251
2023-09-13 17:45 2.72 7.53 5.94 18.57 5.5 250
2023-09-13 16:45 2.82 7.31 6.00 19.06 3.8 259
2023-09-13 15:45 2.89 8.00 6.09 19.03 1.7 258
2023-09-13 14:45 2.76 6.56 6.07 18.47 3.0 167
2023-09-13 13:45 2.49 6.40 5.88 17.52 2.3 147
2023-09-13 12:45 2.56 8.00 5.91 16.40 2.9 142
2023-09-13 11:45 2.46 7.76 5.68 15.45 1.5 97
2023-09-13 10:45 2.36 6.92 5.59 14.76 1.7 198
2023-09-13 09:45 2.49 6.56 5.46 14.57 2.4 170
2023-09-13 08:45 2.53 6.92 5.56 15.09 1.3 36
2023-09-13 07:45 2.79 6.56 5.70 16.04 0.8 20
2023-09-13 06:45 2.79 7.11 5.80 17.26 0.8 168
2023-09-13 05:45 2.72 6.74 5.83 18.57 0.9 268
2023-09-13 04:45 2.76 6.40 6.06 19.62 1.4 129
2023-09-13 03:45 2.95 6.74 5.98 20.21 1.4 138
2023-09-13 02:45 2.59 7.31 5.94 20.21 0.2 293
2023-09-13 01:45 2.59 8.00 5.93 19.69 2.2 254
2023-09-13 00:45 2.49 7.11 5.93 18.80 5.4 238
2023-09-12 23:45 2.56 7.53 5.85 17.81 8.0 236
2023-09-12 22:45 2.30 7.53 5.54 17.03 6.2 247
2023-09-12 21:45 2.40 5.95 5.36 16.60 4.6 266
2023-09-12 20:45 2.62 7.11 5.52 16.57 5.9 266
2023-09-12 19:45 2.36 6.92 5.32 16.96 7.8 260
2023-09-12 18:45 2.82 5.95 5.58 17.65 8.5 252
2023-09-12 17:45 2.99 6.92 5.83 18.34 8.2 238
2023-09-12 16:45 2.99 6.74 5.79 18.80 6.6 237
2023-09-12 15:45 2.53 6.92 5.71 18.93 0.9 298
2023-09-12 14:45 2.49 8.00 5.79 18.57 0.4 257
2023-09-12 13:45 2.26 7.53 5.40 17.72 2.2 187
2023-09-12 12:45 2.30 8.00 5.08 16.67 1.5 137
2023-09-12 11:45 2.26 7.76 4.89 15.65 3.1 292
2023-09-12 10:45 2.17 7.11 5.19 14.86 3.5 297
2023-09-12 09:45 2.07 8.00 5.11 14.50 1.6 187
2023-09-12 08:45 2.03 7.53 4.97 14.76 3.7 247
2023-09-12 07:45 2.03 8.53 4.98 15.52 4.5 120
2023-09-12 06:45 2.17 8.26 4.94 16.60 10.0 17
2023-09-12 05:45 2.13 7.76 5.22 17.91 5.4 26
2023-09-12 04:45 2.26 8.00 5.68 19.09 1.8 326
2023-09-12 03:45 2.20 8.53 6.01 19.91 0.5 271
2023-09-12 02:45 2.33 9.14 6.04 20.18 0.4 10
2023-09-12 01:45 2.23 8.26 5.96 19.98 1.1 340
2023-09-12 00:45 2.30 8.53 5.91 19.32 3.8 23
2023-09-11 23:45 1.97 9.48 5.72 18.44 2.7 304
2023-09-11 22:45 1.97 9.14 5.76 17.65 9.3 293
2023-09-11 21:45 1.97 9.14 5.54 17.06 5.9 5
2023-09-11 20:45 1.94 8.53 5.70 16.83 3.8 16
2023-09-11 19:45 2.03 8.53 5.85 17.06 2.6 303
2023-09-11 18:45 2.00 8.26 5.59 17.52 3.1 273
2023-09-11 17:45 2.26 7.53 5.51 18.14 4.9 10
2023-09-11 16:45 2.30 8.83 5.63 18.67 3.4 22
2023-09-11 15:45 2.30 8.83 5.58 18.86 5.0 286
2023-09-11 14:45 2.40 9.14 5.77 18.67 0.9 32
2023-09-11 13:45 2.46 5.69 5.63 18.01 1.7 24
2023-09-11 12:45 2.26 8.26 5.35 17.06 0.1 129
2023-09-11 11:45 2.20 9.14 5.22 16.01 1.3 160
2023-09-11 10:45 2.30 7.76 5.25 15.09 0.9 45
2023-09-11 09:45 1.97 8.83 5.05 14.57 0.0
2023-09-11 08:45 2.00 8.53 5.22 14.57 0.0 166
2023-09-11 07:45 2.03 9.14 5.24 15.03 0.0
2023-09-11 06:45 2.03 9.48 5.23 15.94 0.3 183
2023-09-11 05:45 2.00 9.48 5.47 17.16 0.5 30
2023-09-11 04:45 1.90 8.53 5.49 18.34 0.2 28
2023-09-11 03:45 2.23 9.48 6.09 19.32 1.3 12
2023-09-11 02:45 2.23 9.14 5.68 19.88 0.5 318
2023-09-11 01:45 2.33 6.56 5.83 19.95 1.0 336
2023-09-11 00:45 2.53 9.14 5.80 19.59 2.3 339
2023-09-10 23:45 2.36 9.48 5.95 18.90 2.5 347
2023-09-10 22:45 2.30 6.40 5.66 18.18 4.5 340
2023-09-10 21:45 2.30 5.82 5.84 17.55 8.4 324
2023-09-10 20:45 2.17 6.24 5.80 17.13 4.5 317
2023-09-10 19:45 2.23 9.14 5.69 17.13 2.5 301
2023-09-10 18:45 2.07 9.14 6.01 17.45 0.9 354
2023-09-10 17:45 2.10 9.85 6.07 17.88 1.0 276
2023-09-10 16:45 2.26 9.48 6.10 18.34 4.1 206
2023-09-10 15:45 2.20 9.48 5.95 18.60 2.0 320
2023-09-10 14:45 2.26 9.85 5.74 18.57 6.2 40
2023-09-10 13:45 2.00 10.24 5.53 18.11 1.3 347
2023-09-10 12:45 2.13 10.67 5.93 17.29 0.8 46
2023-09-10 11:45 2.03 9.48 5.56 16.37 0.6 154
2023-09-10 10:45 1.97 4.41 5.12 15.45 2.0 145
2023-09-10 09:45 1.94 4.34 4.98 14.76 0.1 208
2023-09-10 08:45 1.97 10.67 5.11 14.53 0.7 129
2023-09-10 07:45 1.97 11.13 4.93 14.73 0.8 316
2023-09-10 06:45 2.10 10.67 5.30 15.32 0.7 29
2023-09-10 05:45 2.07 11.13 5.16 16.34 0.0 153
2023-09-10 04:45 2.10 9.14 5.39 17.42 0.9 2
2023-09-10 03:45 2.00 11.64 5.43 18.50 1.0 295
2023-09-10 02:45 1.84 11.64 5.52 19.29 2.5 5
2023-09-10 01:45 1.94 9.85 5.40 19.62 3.0 330
2023-09-10 00:45 1.77 9.85 5.32 19.59 3.8 10
2023-09-09 23:45 1.67 9.48 5.52 19.13 4.7 4
2023-09-09 22:45 1.61 10.67 5.85 18.54 4.8 350
2023-09-09 21:45 1.41 11.64 5.72 17.98 6.4 356
2023-09-09 20:45 1.35 9.48 5.55 17.52 4.5 321
2023-09-09 19:45 1.41 11.13 5.63 17.32 5.3 12
2023-09-09 18:45 1.35 11.64 5.70 17.42 5.4 346
2023-09-09 17:45 1.35 11.64 5.47 17.75 2.5 304
2023-09-09 16:45 1.38 11.64 5.20 18.08 1.2 24
2023-09-09 15:45 1.38 11.64 5.54 18.31 0.0 253
2023-09-09 14:45 1.25 9.48 5.26 18.41 1.6 26
2023-09-09 13:45 1.31 11.64 5.22 18.14 1.3 161
2023-09-09 12:45 1.31 11.64 5.11 17.55 1.3 21
2023-09-09 11:45 1.38 11.64 5.17 16.77 3.7 30
2023-09-09 10:45 1.31 4.00 4.57 15.91 3.6 26
2023-09-09 09:45 1.35 13.47 4.57 15.16 4.8 22
2023-09-09 08:45 1.28 3.71 4.30 14.70 1.5 17
2023-09-09 07:45 1.28 11.13 4.32 14.63 3.6 14
2023-09-09 06:45 1.25 3.46 4.16 14.99 3.7 9
2023-09-09 05:45 1.21 3.28 3.98 15.72 4.2 20
2023-09-09 04:45 1.18 3.20 4.01 16.60 2.1 15
2023-09-09 03:45 1.05 3.20 4.12 17.59 0.6 13
2023-09-09 02:45 0.92 3.20 4.62 18.50 2.3 15
2023-09-09 01:45 0.95 14.22 4.90 19.16 2.6 14
2023-09-09 00:45 0.98 15.06 5.18 19.46 4.2 14
2023-09-08 23:45 0.98 15.06 5.38 19.36 5.3 346
2023-09-08 22:45 0.98 15.06 5.04 19.03 5.1 331
2023-09-08 21:45 1.05 3.94 4.98 18.57 5.9 329
2023-09-08 20:45 1.02 15.06 5.35 18.11 3.5 354
2023-09-08 19:45 0.92 15.06 5.11 17.81 4.2 359
2023-09-08 18:45 0.95 14.22 5.01 17.72 3.1 7
2023-09-08 17:45 0.95 4.41 4.96 17.78 3.4 3
2023-09-08 16:45 0.95 15.06 5.33 18.01 4.1 356
2023-09-08 15:45 0.95 3.71 4.89 18.18 3.0 8
2023-09-08 14:45 1.05 3.37 4.81 18.24 1.0 22
2023-09-08 13:45 1.18 15.06 4.53 18.14 0.9 328
2023-09-08 12:45 1.18 3.66 4.40 17.81 3.1 17
2023-09-08 11:45 1.21 15.06 4.63 17.32 2.8 6
2023-09-08 10:45 1.31 3.94 4.44 16.60 4.0 11
2023-09-08 09:45 1.31 3.76 4.32 15.91 3.8 29
2023-09-08 08:45 1.31 3.61 4.37 15.39 4.0 7
2023-09-08 07:45 1.21 4.27 4.45 15.06 3.2 4
2023-09-08 06:45 1.15 3.32 4.36 15.03 2.9 354
2023-09-08 05:45 1.08 15.06 4.86 15.35 3.0 23
2023-09-08 04:45 1.08 15.06 4.89 15.98 2.2 29
2023-09-08 03:45 1.02 15.06 4.90 16.73 2.0 22
2023-09-08 02:45 1.08 16.00 5.18 17.55 4.4 350
2023-09-08 01:45 1.12 8.26 5.30 18.31 7.0 341
2023-09-08 00:45 1.15 16.00 5.75 18.93 5.9 340
2023-09-07 23:45 1.18 8.26 5.67 19.23 5.0 331
2023-09-07 22:45 1.28 9.48 5.67 19.26 6.0 324
2023-09-07 21:45 1.35 15.06 5.60 19.09 7.1 322
2023-09-07 20:45 1.28 4.83 5.49 18.80 7.6 330
2023-09-07 19:45 1.38 5.12 5.34 18.47 7.9 330
2023-09-07 18:45 1.38 4.65 5.33 18.21 6.1 341
2023-09-07 17:45 1.44 4.65 5.44 18.01 3.3 325
2023-09-07 16:45 1.35 9.85 5.60 17.95 3.9 324
2023-09-07 15:45 1.28 8.53 5.25 17.91 2.9 292
2023-09-07 14:45 1.38 3.41 5.11 17.95 5.1 17
2023-09-07 13:45 1.38 3.46 4.67 17.95 4.7 9
2023-09-07 12:45 1.41 4.13 4.70 17.78 5.1 4
2023-09-07 11:45 1.61 3.94 4.76 17.59 5.0 24
2023-09-07 10:45 1.74 4.20 4.65 17.19 5.6 11
2023-09-07 09:45 1.84 3.82 4.59 16.70 4.9 13
2023-09-07 08:45 1.38 4.20 5.15 16.24 3.7 23
2023-09-07 07:45 1.12 10.67 5.70 15.75 1.6 33
2023-09-07 06:45 1.21 10.24 5.46 15.49 1.7 30
2023-09-07 05:45 1.15 10.24 4.95 15.42 0.0 138
2023-09-07 04:45 1.28 15.06 5.03 15.65 2.1 34
2023-09-07 03:45 1.28 5.82 5.17 16.11 3.7 16
2023-09-07 02:45 1.15 9.85 5.66 16.67 5.4 335
2023-09-07 01:45 1.21 10.24 5.95 17.39 5.4 309
2023-09-07 00:45 1.25 15.06 6.42 18.24 6.1 312
2023-09-06 23:45 1.21 9.48 6.62 18.86 6.5 311
2023-09-06 22:45 1.21 15.06 7.00 19.36 6.4 305
2023-09-06 21:45 1.21 10.24 6.84 19.55 7.4 300
2023-09-06 20:45 1.31 11.13 6.67 19.49 8.0 304
2023-09-06 19:45 1.25 10.24 6.62 19.23 8.0 311
2023-09-06 18:45 1.31 15.06 6.88 18.83 6.9 310
2023-09-06 17:45 1.25 10.67 6.52 18.44 6.8 315
2023-09-06 16:45 1.28 10.67 6.67 18.04 6.1 315
2023-09-06 15:45 1.18 11.64 6.67 17.75 6.1 337
2023-09-06 14:45 1.15 11.64 6.57 17.62 5.8 334
2023-09-06 13:45 1.12 11.64 6.44 17.52 5.3 319
2023-09-06 12:45 1.15 10.67 6.62 17.59 1.4 343
2023-09-06 11:45 1.25 15.06 6.34 17.68 1.3 317
2023-09-06 10:45 1.35 10.24 6.17 17.62 2.5 309
2023-09-06 09:45 1.44 10.67 6.44 17.49 3.0 335
2023-09-06 08:45 1.41 11.13 6.37 17.16 4.7 6
2023-09-06 07:45 1.44 11.13 6.25 16.80 3.9 14
2023-09-06 06:45 1.38 15.06 6.18 16.34 1.4 326
2023-09-06 05:45 1.41 11.13 6.17 15.98 1.1 345
2023-09-06 04:45 1.41 8.00 6.40 15.78 0.4 232
2023-09-06 03:45 1.54 6.40 6.34 15.75 1.0 300
2023-09-06 02:45 1.48 11.64 6.65 15.98 1.9 307
2023-09-06 01:45 1.51 11.13 6.64 16.54 3.4 277
2023-09-06 00:45 1.51 5.95 6.25 17.29 3.9 291
2023-09-05 23:45 1.71 11.64 6.18 18.11 5.3 298
2023-09-05 22:45 1.67 12.19 6.37 18.96 6.6 287
2023-09-05 21:45 1.64 11.64 6.44 19.59 6.6 275
2023-09-05 20:45 1.67 12.19 6.28 19.91 7.3 236
2023-09-05 19:45 1.57 12.19 6.03 19.91 8.1 237
2023-09-05 18:45 1.64 6.92 6.20 19.55 5.3 237
2023-09-05 17:45 1.64 7.11 5.83 18.96 6.3 217
2023-09-05 16:45 1.61 6.74 5.89 18.31 4.1 282
2023-09-05 15:45 1.80 6.92 5.70 17.65 2.6 154
2023-09-05 14:45 1.41 6.56 5.55 17.16 4.4 123
2023-09-05 13:45 1.51 6.40 5.55 16.90 4.3 106
2023-09-05 12:45 1.54 6.74 5.53 16.99 4.1 119
2023-09-05 11:45 1.61 6.10 5.78 17.22 5.6 110
2023-09-05 10:45 1.71 6.40 5.69 17.55 5.7 104
2023-09-05 09:45 1.64 17.07 5.71 17.85 4.3 119
2023-09-05 08:45 1.67 7.11 6.02 18.01 2.2 139
2023-09-05 07:45 1.57 6.24 6.02 17.85 2.0 160
2023-09-05 06:45 1.51 6.56 6.10 17.49 1.7 179
2023-09-05 05:45 1.54 6.74 5.89 16.99 0.8 165
2023-09-05 04:45 1.57 5.45 5.83 16.37 0.7 267
2023-09-05 03:45 1.74 6.24 5.74 15.91 3.9 345
2023-09-05 02:45 1.84 6.10 5.56 15.62 3.7 328
2023-09-05 01:45 1.74 5.82 5.51 15.72 3.8 302
2023-09-05 00:45 1.80 6.40 5.41 16.21 4.5 299
2023-09-04 23:45 2.00 6.24 5.52 17.06 6.2 295
2023-09-04 22:45 1.84 5.82 5.39 18.11 6.8 280
2023-09-04 21:45 1.90 5.95 5.32 19.16 5.9 278
2023-09-04 20:45 2.17 5.95 5.60 19.88 6.7 276
2023-09-04 19:45 2.07 5.82 5.61 20.21 5.7 279
2023-09-04 18:45 2.03 5.33 5.32 20.08 5.6 286
2023-09-04 17:45 2.03 5.33 5.20 19.59 4.0 292
2023-09-04 16:45 1.97 5.45 5.30 18.67 3.1 293
2023-09-04 15:45 2.00 5.95 5.23 17.68 1.8 299
2023-09-04 14:45 1.97 4.49 5.21 16.80 0.4 47
2023-09-04 13:45 1.90 4.41 4.98 16.21 2.1 295
2023-09-04 12:45 1.80 4.49 4.95 16.04 4.2 298
2023-09-04 11:45 1.84 4.49 4.75 16.34 4.6 286
2023-09-04 10:45 1.94 4.34 4.85 16.93 3.6 299
2023-09-04 09:45 2.10 4.92 4.82 17.68 2.4 311
2023-09-04 08:45 2.13 4.83 4.83 18.37 4.2 313
2023-09-04 07:45 2.17 4.65 4.61 18.70 6.5 310
2023-09-04 06:45 2.33 4.41 4.56 18.67 7.4 304
2023-09-04 05:45 2.30 4.41 4.47 18.24 7.6 302
2023-09-04 04:45 2.33 4.41 4.43 17.49 7.8 310
2023-09-04 03:45 2.36 4.41 4.25 16.60 7.5 312
2023-09-04 02:45 2.43 4.06 4.25 15.85 8.7 315
2023-09-04 01:45 2.20 4.13 4.20 15.39 9.3 322
2023-09-04 00:45 2.13 4.06 4.22 15.45 8.6 316
2023-09-03 23:45 1.90 3.32 4.15 16.01 10.3 320
2023-09-03 22:45 1.61 3.20 4.12 16.99 10.1 315
2023-09-03 21:45 1.15 8.83 6.54 18.21 9.3 314
2023-09-03 20:45 1.25 8.53 8.06 19.39 8.3 321
2023-09-03 19:45 1.21 8.00 8.17 20.14 7.6 317
2023-09-03 18:45 1.18 8.53 8.09 20.41 5.6 299
2023-09-03 17:45 1.18 8.00 7.92 20.08 2.8 281
2023-09-03 16:45 1.12 8.00 8.19 19.16 0.7 296
2023-09-03 15:45 1.12 16.00 7.47 17.95 1.3 334
2023-09-03 14:45 1.25 8.00 5.62 16.77 3.8 13
2023-09-03 13:45 1.21 8.53 5.07 15.78 5.8 6
2023-09-03 12:45 1.12 8.26 6.05 15.26 9.3 314
2023-09-03 11:45 1.15 8.00 6.64 15.39 0.5 8
2023-09-03 10:45 1.12 8.83 6.54 16.04 0.9 185
2023-09-03 09:45 1.18 8.83 6.71 17.06 0.1 176
2023-09-03 08:45 1.18 8.26 7.03 18.24 0.8 326
2023-09-03 07:45 1.21 8.53 7.30 19.19 1.5 28
2023-09-03 06:45 1.15 8.83 7.27 19.62 0.9 304
2023-09-03 05:45 1.25 8.83 7.76 19.52 1.4 1
2023-09-03 04:45 1.18 9.48 7.19 18.90 4.7 19
2023-09-03 03:45 1.08 9.48 6.46 17.81 3.4 347
2023-09-03 02:45 1.12 8.83 6.67 16.63 4.9 345
2023-09-03 01:45 1.15 9.14 6.10 15.72 6.4 342
2023-09-03 00:45 1.15 9.14 6.26 15.22 5.5 331
2023-09-02 23:45 1.15 8.83 6.00 15.32 5.2 337
2023-09-02 22:45 1.25 9.85 6.25 16.04 4.7 330
2023-09-02 21:45 1.25 7.31 6.61 17.13 3.7 336
2023-09-02 20:45 1.18 9.48 6.75 18.47 3.6 330
2023-09-02 19:45 1.25 9.14 7.38 19.65 3.8 299
2023-09-02 18:45 1.25 9.14 7.99 20.31 2.6 277
2023-09-02 17:45 1.31 9.48 7.18 20.31 3.8 256
2023-09-02 16:45 1.21 17.07 6.92 19.59 4.5 258
2023-09-02 15:45 1.15 9.14 6.53 18.41 6.3 238
2023-09-02 14:45 1.15 9.14 6.71 16.93 6.1 226
2023-09-02 13:45 1.05 16.00 6.42 15.58 2.2 207
2023-09-02 12:45 1.12 9.14 6.61 14.63 2.2 195
2023-09-02 11:45 1.02 15.06 6.53 14.40 1.3 175
2023-09-02 10:45 1.08 8.53 6.63 14.90 1.8 164
2023-09-02 09:45 1.12 16.00 6.57 15.98 0.7 135
2023-09-02 08:45 1.18 16.00 7.29 17.45 2.6 184
2023-09-02 07:45 1.25 9.14 7.11 18.90 0.6 140
2023-09-02 06:45 1.35 8.83 7.15 19.98 1.7 214
2023-09-02 05:45 1.38 18.29 7.05 20.44 2.3 213
2023-09-02 04:45 1.44 9.14 6.56 20.18 3.3 176
2023-09-02 03:45 1.44 16.00 6.39 19.32 3.6 186
2023-09-02 02:45 1.44 6.24 6.15 18.08 6.8 186
2023-09-02 01:45 1.48 8.26 6.17 16.73 9.5 198
2023-09-02 00:45 1.51 6.56 6.22 15.72 10.9 206
2023-09-01 23:45 1.57 6.56 6.26 15.19 10.7 208
2023-09-01 22:45 1.48 10.24 6.50 15.39 9.8 198
2023-09-01 21:45 1.54 8.83 6.49 16.17 9.3 228
2023-09-01 20:45 1.57 8.83 6.66 17.36 12.2 233
2023-09-01 19:45 1.80 8.83 7.18 18.70 13.8 238
2023-09-01 18:45 1.77 9.48 7.39 19.69 11.2 239
2023-09-01 17:45 1.87 9.85 7.26 20.11 10.2 226
2023-09-01 16:45 1.74 9.85 6.86 19.82 9.7 224
2023-09-01 15:45 1.74 10.24 6.94 18.80 8.3 214
2023-09-01 14:45 1.74 9.85 6.93 17.36 3.9 195
2023-09-01 13:45 1.61 9.85 6.62 15.78 4.1 147
2023-09-01 12:45 1.51 9.85 6.52 14.47 3.4 156
2023-09-01 11:45 1.51 10.24 6.86 13.81 4.2 150
2023-09-01 10:45 1.51 10.24 6.65 13.88 2.8 148
2023-09-01 09:45 1.41 10.24 6.63 14.80 3.2 119
2023-09-01 08:45 1.41 10.67 6.87 16.27 3.3 137
2023-09-01 07:45 1.51 10.67 6.94 18.04 3.6 138
2023-09-01 06:45 1.41 11.13 7.02 19.69 3.5 138
2023-09-01 05:45 1.61 10.67 7.12 20.77 3.1 158
2023-09-01 04:45 1.61 10.24 6.95 21.16 3.3 183
2023-09-01 03:45 1.54 10.67 6.51 20.70 2.7 205
2023-09-01 02:45 1.48 11.13 6.28 19.62 2.8 202
2023-09-01 01:45 1.51 10.67 6.39 18.18 3.7 234
2023-09-01 00:45 1.61 11.13 6.32 16.80 8.0 227